KNOW

Port Angeles CGas Airport

Port Angeles, Washington, USA
METAR KNOW 151830Z AUTO 05003KT 10SM OVC014 05/04 A2957 RMK AO2 T00520037
Observed Flight Rules
Feb-15 @ 18:30 UTC (36 minutes ago) Marginal Visual Flight Rules
Wind Visibility Clouds
50° at 3 knots 10 miles
  • Overcast at 1,400' AGL
Temperatures Readings
Current 5°C / 41°F
Dewpoint 4°C / 39°F
Humidity 93%
Altimeter 29.57" Hg
Pressure 1001.32 hPa
Elevation 4
METAR KNOW 151830Z AUTO 05003KT 10SM OVC014 05/04 A2957 RMK AO2 T00520037
Observed Flight Rules
Feb-15 @ 18:30 UTC
(36 minutes ago)
MVFR
Wind Visibility
50° at 3 knots 10 miles
Clouds
  • Overcast at 1,400' AGL
Temperature Dewpoint
5°C / 41°F 4°C / 39°F
Humidity Altimeter Pressure
93% 29.57" Hg 1001.32 hPa